Time;durP1;ratioP1;P1;durP2;ratioP2;P2;SDS_P1;SDS_P2;PMS_P1;PMS_P2;Temp;Humidity;BMP_temperature;BMP_pressure;BME280_temperature;BME280_humidity;BME280_pressure;Samples;Min_cycle;Max_cycle;Signal;HPM_P1;HPM_P2
2021/06/23 00:00:06;;;;;;;10.70;1.10;;;;;;;20.12;68.93;99530.16;1783335;78;21509;-56
2021/06/23 00:02:35;;;;;;;7.25;1.12;;;;;;;20.08;68.92;99531.42;1781911;78;21449;-56
2021/06/23 00:05:01;;;;;;;14.13;1.32;;;;;;;20.06;68.98;99534.82;1803534;78;21096;-56
2021/06/23 00:07:27;;;;;;;8.00;1.40;;;;;;;20.02;69.01;99529.63;1779343;78;21082;-56
2021/06/23 00:09:54;;;;;;;7.00;0.70;;;;;;;20.00;69.10;99526.66;1772459;78;21120;-56
2021/06/23 00:12:21;;;;;;;9.50;1.27;;;;;;;19.97;69.15;99533.78;1779791;78;21126;-56
2021/06/23 00:14:48;;;;;;;15.45;1.72;;;;;;;19.94;69.21;99533.55;1806093;78;21396;-55
2021/06/23 00:17:14;;;;;;;11.12;1.00;;;;;;;19.92;69.37;99533.31;1769930;80;21096;-56
2021/06/23 00:19:41;;;;;;;10.32;1.70;;;;;;;19.90;69.54;99532.62;1768181;80;21093;-56
2021/06/23 00:22:07;;;;;;;17.32;1.70;;;;;;;19.87;69.62;99529.65;1768007;78;21347;-56
2021/06/23 00:24:33;;;;;;;6.55;0.95;;;;;;;19.85;69.62;99528.91;1784119;78;22635;-56
2021/06/23 00:26:59;;;;;;;7.97;1.20;;;;;;;19.85;69.56;99525.31;1788269;78;21434;-56
2021/06/23 00:29:26;;;;;;;6.42;0.80;;;;;;;19.83;69.62;99527.31;1777225;79;21556;-56
2021/06/23 00:31:52;;;;;;;10.75;0.93;;;;;;;19.79;69.70;99519.92;1775515;78;21060;-56
2021/06/23 00:34:20;;;;;;;8.95;0.82;;;;;;;19.78;69.79;99519.55;1778367;79;21057;-56
2021/06/23 00:36:47;;;;;;;14.50;1.47;;;;;;;19.77;69.80;99515.09;1767502;78;21138;-56
2021/06/23 00:39:13;;;;;;;6.90;0.90;;;;;;;19.76;69.82;99507.89;1763073;79;21091;-56
2021/06/23 00:41:40;;;;;;;10.23;1.00;;;;;;;19.75;69.90;99508.02;1763639;79;21080;-56
2021/06/23 00:44:07;;;;;;;12.68;0.80;;;;;;;19.74;69.89;99509.02;1761431;79;21107;-56
2021/06/23 00:46:34;;;;;;;9.45;0.80;;;;;;;19.71;69.96;99506.59;1764621;79;21100;-56
2021/06/23 00:49:01;;;;;;;12.90;1.07;;;;;;;19.68;70.04;99510.95;1761422;79;22405;-56
2021/06/23 00:51:27;;;;;;;5.55;0.90;;;;;;;19.65;69.97;99516.17;1762878;79;21061;-56
2021/06/23 00:53:56;;;;;;;5.60;0.70;;;;;;;19.63;70.02;99514.97;1760407;79;21081;-56
2021/06/23 00:56:32;;;;;;;9.63;0.90;;;;;;;19.62;70.09;99524.16;1763867;79;21089;-56
2021/06/23 00:58:59;;;;;;;6.00;0.98;;;;;;;19.60;70.19;99520.69;1762504;79;21092;-56
2021/06/23 01:01:27;;;;;;;6.12;0.80;;;;;;;19.59;70.27;99519.45;1763644;79;23000;-56
2021/06/23 01:03:53;;;;;;;5.25;0.95;;;;;;;19.59;70.38;99524.92;1756680;80;21111;-56
2021/06/23 01:06:20;;;;;;;4.00;0.72;;;;;;;19.58;70.45;99517.72;1760004;79;21312;-56
2021/06/23 01:08:47;;;;;;;9.45;1.00;;;;;;;19.57;70.51;99518.22;1759970;79;22229;-56
2021/06/23 01:11:13;;;;;;;5.92;0.90;;;;;;;19.57;70.53;99516.86;1769600;79;21467;-56
2021/06/23 01:14:01;;;;;;;6.97;0.70;;;;;;;19.56;70.55;99520.59;1767593;79;21127;-56
2021/06/23 01:16:29;;;;;;;3.80;0.90;;;;;;;19.56;70.56;99515.13;1767755;79;21434;-55
2021/06/23 01:18:58;;;;;;;4.83;1.12;;;;;;;19.56;70.61;99513.77;1768015;79;21049;-55
2021/06/23 01:21:29;;;;;;;5.83;0.70;;;;;;;19.56;70.67;99512.39;1739923;79;22212;-55
2021/06/23 01:23:55;;;;;;;9.38;0.85;;;;;;;19.57;70.67;99508.67;1770458;79;21061;-55
2021/06/23 01:26:23;;;;;;;2.83;0.72;;;;;;;19.58;70.62;99509.53;1744211;80;21152;-55
2021/06/23 01:28:50;;;;;;;8.15;1.55;;;;;;;19.60;70.61;99508.91;1768484;79;21037;-55
2021/06/23 01:31:19;;;;;;;3.35;0.70;;;;;;;19.57;70.59;99508.67;1767168;79;21645;-61
2021/06/23 01:33:47;;;;;;;12.63;1.00;;;;;;;19.56;70.69;99511.03;1774709;79;21159;-66
2021/06/23 01:36:15;;;;;;;11.15;1.10;;;;;;;19.54;70.71;99508.97;1749942;79;21108;-66
2021/06/23 01:38:42;;;;;;;5.87;0.85;;;;;;;19.53;70.78;99514.55;1780030;79;21144;-55
2021/06/23 01:41:09;;;;;;;9.08;1.30;;;;;;;19.52;70.89;99518.28;1776668;79;21084;-55
2021/06/23 01:43:38;;;;;;;5.78;0.80;;;;;;;19.51;70.98;99520.14;1780702;78;21041;-56
2021/06/23 01:46:07;;;;;;;4.87;0.98;;;;;;;19.51;71.03;99513.31;1776100;79;21689;-55
2021/06/23 01:48:34;;;;;;;3.47;0.62;;;;;;;19.52;71.12;99512.32;1776851;79;21048;-55
2021/06/23 01:51:02;;;;;;;4.22;0.68;;;;;;;19.51;71.04;99507.86;1778104;79;21143;-56
2021/06/23 01:53:33;;;;;;;5.10;0.60;;;;;;;19.50;71.01;99503.39;1776862;79;22385;-55
2021/06/23 01:56:03;;;;;;;5.28;0.80;;;;;;;19.49;71.01;99505.76;1778605;79;21068;-56
2021/06/23 01:58:30;;;;;;;5.58;0.90;;;;;;;19.49;71.04;99505.76;1781200;79;20989;-56
2021/06/23 02:01:22;;;;;;;5.85;1.65;;;;;;;19.47;71.08;99505.05;1781890;79;21483;-55
2021/06/23 02:04:13;;;;;;;5.33;0.90;;;;;;;19.47;71.17;99507.78;1780282;79;21124;-54
2021/06/23 02:06:56;;;;;;;8.95;1.22;;;;;;;19.47;71.24;99511.88;1779905;79;21556;-55
2021/06/23 02:09:48;;;;;;;7.58;0.80;;;;;;;19.47;71.30;99517.80;1781767;79;20913;-55
2021/06/23 02:12:33;;;;;;;12.15;1.00;;;;;;;19.45;71.30;99520.66;1781175;79;20993;-55
2021/06/23 02:15:05;;;;;;;5.12;0.70;;;;;;;19.45;71.35;99522.52;1746617;78;20963;-55
2021/06/23 02:17:35;;;;;;;3.55;0.70;;;;;;;19.46;71.44;99519.66;1777129;78;21848;-55
2021/06/23 02:20:08;;;;;;;5.25;0.90;;;;;;;19.45;71.52;99517.94;1787839;78;20902;-55
2021/06/23 02:22:36;;;;;;;7.58;0.95;;;;;;;19.42;71.54;99532.34;1746916;79;21557;-55
2021/06/23 02:25:08;;;;;;;6.37;0.78;;;;;;;19.40;71.68;99532.47;1764538;79;21144;-55
2021/06/23 02:27:41;;;;;;;11.65;0.70;;;;;;;19.38;71.80;99530.39;1771562;79;21048;-55
2021/06/23 02:30:11;;;;;;;9.10;0.70;;;;;;;19.36;71.85;99527.42;1780596;79;21078;-55
2021/06/23 02:34:12;;;;;;;12.05;1.67;;;;;;;19.41;71.95;99530.60;1792131;78;28134;-54
2021/06/23 02:36:40;;;;;;;6.85;1.35;;;;;;;19.38;72.04;99533.12;1763070;79;20918;-54
2021/06/23 02:39:07;;;;;;;4.37;1.20;;;;;;;19.41;72.04;99529.23;1767170;79;21425;-54
2021/06/23 02:41:34;;;;;;;2.47;0.65;;;;;;;19.45;72.03;99529.34;1764667;79;20898;-54
2021/06/23 02:44:01;;;;;;;5.72;0.70;;;;;;;19.46;72.04;99537.41;1752409;80;20933;-54
2021/06/23 02:46:29;;;;;;;3.22;0.75;;;;;;;19.47;72.09;99528.72;1751081;80;21396;-54
2021/06/23 02:48:59;;;;;;;7.50;0.85;;;;;;;19.49;72.13;99533.55;1748504;80;21369;-54
2021/06/23 02:51:40;;;;;;;3.75;0.60;;;;;;;19.50;72.23;99537.52;1744837;80;22540;-56
2021/06/23 02:54:08;;;;;;;8.25;1.05;;;;;;;19.52;72.26;99535.52;1751395;80;21701;-54
2021/06/23 02:56:37;;;;;;;5.62;0.50;;;;;;;19.54;72.24;99540.36;1743556;80;21092;-55
2021/06/23 02:59:05;;;;;;;7.80;0.80;;;;;;;19.57;72.15;99536.47;1744613;80;21077;-55
2021/06/23 03:01:32;;;;;;;4.62;0.70;;;;;;;19.60;72.06;99535.70;1745134;80;21097;-54
2021/06/23 03:04:00;;;;;;;6.03;0.70;;;;;;;19.63;72.02;99531.85;1745729;80;21153;-54
2021/06/23 03:06:28;;;;;;;6.17;0.80;;;;;;;19.66;72.11;99528.83;1738807;80;21437;-55
2021/06/23 03:08:56;;;;;;;5.28;0.80;;;;;;;19.70;72.16;99537.63;1744441;80;21348;-54
2021/06/23 03:11:35;;;;;;;6.83;0.68;;;;;;;19.74;72.37;99536.33;1725018;80;21147;-54
2021/06/23 03:14:04;;;;;;;5.62;1.10;;;;;;;19.79;72.50;99529.48;1741620;80;21052;-54
2021/06/23 03:16:36;;;;;;;3.90;0.60;;;;;;;19.84;72.61;99523.59;1749630;80;21539;-54
2021/06/23 03:19:05;;;;;;;2.70;0.78;;;;;;;19.90;73.04;99520.33;1746940;80;20953;-54
2021/06/23 03:21:33;;;;;;;2.27;0.98;;;;;;;19.97;73.36;99513.30;1749122;80;21139;-54
2021/06/23 03:24:00;;;;;;;2.12;0.62;;;;;;;20.05;73.52;99520.30;1744373;80;21603;-55
2021/06/23 03:26:30;;;;;;;5.20;0.95;;;;;;;20.11;73.63;99525.19;1746797;80;21116;-55
2021/06/23 03:28:57;;;;;;;9.08;0.70;;;;;;;20.17;73.65;99522.39;1713913;80;21130;-55
2021/06/23 03:31:24;;;;;;;5.67;0.88;;;;;;;20.23;73.59;99524.08;1691924;80;21124;-54
2021/06/23 03:33:52;;;;;;;3.27;0.80;;;;;;;20.30;73.54;99529.34;1742494;80;20883;-55
2021/06/23 03:36:26;;;;;;;6.42;0.80;;;;;;;20.37;73.68;99518.23;1706475;81;20982;-55
2021/06/23 03:38:53;;;;;;;9.03;1.27;;;;;;;20.44;73.10;99514.42;1737838;80;21032;-55
2021/06/23 03:41:20;;;;;;;3.52;1.20;;;;;;;20.53;72.86;99508.60;1734635;81;21328;-55
2021/06/23 03:43:47;;;;;;;5.35;0.85;;;;;;;20.65;72.22;99509.70;1730483;81;20946;-55
2021/06/23 03:46:13;;;;;;;11.83;1.00;;;;;;;20.77;72.38;99512.64;1728796;80;21069;-55
2021/06/23 03:48:41;;;;;;;2.50;0.82;;;;;;;20.91;72.93;99516.83;1731780;81;21154;-55
2021/06/23 03:51:10;;;;;;;9.43;1.65;;;;;;;21.04;73.19;99517.38;1731211;80;21087;-55
2021/06/23 03:53:37;;;;;;;4.35;1.15;;;;;;;21.17;72.36;99523.06;1735627;80;23053;-55
2021/06/23 03:56:05;;;;;;;5.50;1.30;;;;;;;21.31;71.64;99524.86;1731940;80;21076;-55
2021/06/23 03:58:31;;;;;;;6.30;1.15;;;;;;;21.46;71.41;99530.22;1732397;80;21140;-56
2021/06/23 04:00:58;;;;;;;7.37;1.25;;;;;;;21.62;70.86;99524.61;1732088;81;21137;-55
2021/06/23 04:03:33;;;;;;;4.60;1.52;;;;;;;21.75;70.23;99530.64;1733746;81;21073;-55
2021/06/23 04:06:17;;;;;;;9.78;2.00;;;;;;;21.86;69.83;99528.55;1733904;81;21563;-55
2021/06/23 04:08:45;;;;;;;17.55;7.28;;;;;;;22.00;69.14;99525.00;1736291;81;20942;-57
2021/06/23 04:11:11;;;;;;;35.28;17.15;;;;;;;22.11;68.62;99523.44;1735393;80;20978;-56
2021/06/23 04:13:37;;;;;;;15.83;5.33;;;;;;;22.22;67.81;99519.96;1734757;81;21041;-57
2021/06/23 04:16:04;;;;;;;5.92;2.77;;;;;;;22.35;68.47;99519.61;1731980;80;21061;-55
2021/06/23 04:18:32;;;;;;;6.15;1.30;;;;;;;22.45;68.96;99508.58;1736889;81;21115;-55
2021/06/23 04:20:59;;;;;;;4.22;1.27;;;;;;;22.57;69.13;99513.67;1731130;81;21045;-55
2021/06/23 04:23:26;;;;;;;6.12;0.80;;;;;;;22.65;68.85;99508.77;1733375;80;21059;-56
2021/06/23 04:25:53;;;;;;;3.42;0.78;;;;;;;22.77;68.12;99505.33;1734067;81;21093;-55
2021/06/23 04:28:20;;;;;;;7.80;0.90;;;;;;;22.88;67.43;99506.47;1737989;80;21120;-56
2021/06/23 04:30:47;;;;;;;4.35;0.85;;;;;;;22.98;67.34;99502.59;1734651;80;21149;-57
2021/06/23 04:33:13;;;;;;;7.58;1.45;;;;;;;23.08;67.13;99501.12;1735827;80;21045;-56
2021/06/23 04:35:42;;;;;;;2.33;0.80;;;;;;;23.19;66.18;99501.39;1731662;80;21097;-56
2021/06/23 04:38:08;;;;;;;6.10;1.40;;;;;;;23.30;65.45;99502.51;1736235;80;20907;-56
2021/06/23 04:40:36;;;;;;;5.83;1.50;;;;;;;23.43;64.64;99502.06;1738561;80;20923;-56
2021/06/23 04:43:03;;;;;;;9.25;1.07;;;;;;;23.55;64.23;99501.68;1735709;80;21818;-55
2021/06/23 04:45:30;;;;;;;7.58;0.85;;;;;;;23.64;64.57;99492.46;1740691;80;20886;-56
2021/06/23 04:48:01;;;;;;;4.00;0.78;;;;;;;23.74;63.89;99498.67;1737866;81;21780;-55
2021/06/23 04:50:30;;;;;;;9.35;0.88;;;;;;;23.85;64.10;99501.66;1742723;80;20944;-56
2021/06/23 04:52:58;;;;;;;5.70;0.70;;;;;;;23.94;63.74;99496.55;1738544;81;20918;-56
2021/06/23 04:55:24;;;;;;;3.90;0.60;;;;;;;24.04;63.44;99499.17;1735324;80;21850;-55
2021/06/23 04:57:53;;;;;;;7.40;0.80;;;;;;;24.16;63.21;99502.48;1739915;81;20998;-56
2021/06/23 05:00:21;;;;;;;2.35;1.17;;;;;;;24.27;63.17;99503.05;1739374;80;20907;-55
2021/06/23 05:02:47;;;;;;;3.58;0.80;;;;;;;24.40;62.65;99503.97;1720832;81;20893;-56
2021/06/23 05:05:14;;;;;;;10.05;0.80;;;;;;;24.51;62.47;99505.86;1736836;80;20926;-56
2021/06/23 05:07:41;;;;;;;10.93;0.95;;;;;;;24.61;61.80;99508.47;1732994;81;21824;-56
2021/06/23 05:10:09;;;;;;;5.12;0.70;;;;;;;24.72;61.03;99503.16;1734323;81;21680;-55
2021/06/23 05:12:36;;;;;;;4.42;0.70;;;;;;;24.81;60.76;99504.89;1736190;81;20897;-55
2021/06/23 05:15:03;;;;;;;4.17;0.80;;;;;;;24.90;60.61;99512.13;1734791;81;20942;-56
2021/06/23 05:17:31;;;;;;;3.65;0.85;;;;;;;24.97;60.30;99520.59;1731155;81;21099;-56
2021/06/23 05:19:57;;;;;;;9.80;0.90;;;;;;;25.04;60.30;99523.86;1699813;81;21191;-55
2021/06/23 05:22:23;;;;;;;20.70;1.27;;;;;;;25.11;60.65;99530.40;1732798;80;21058;-56
2021/06/23 05:24:50;;;;;;;15.20;0.90;;;;;;;25.18;61.03;99530.56;1734533;80;21049;-57
2021/06/23 05:27:16;;;;;;;11.60;0.70;;;;;;;25.24;59.50;99520.25;1737661;81;21440;-57
2021/06/23 05:29:43;;;;;;;5.22;0.70;;;;;;;25.30;57.49;99517.31;1736981;80;21105;-56
2021/06/23 05:32:09;;;;;;;1.67;0.60;;;;;;;25.37;56.35;99523.84;1736143;81;21100;-56
2021/06/23 05:34:36;;;;;;;4.55;0.80;;;;;;;25.43;55.87;99521.28;1744695;80;21060;-57
2021/06/23 05:37:03;;;;;;;5.50;0.93;;;;;;;25.48;55.05;99513.33;1746126;80;21302;-57
2021/06/23 05:39:29;;;;;;;4.33;1.17;;;;;;;25.51;54.41;99509.38;1742698;80;21084;-55
2021/06/23 05:41:55;;;;;;;4.28;1.20;;;;;;;25.54;54.17;99503.50;1744790;80;21600;-55
2021/06/23 05:44:22;;;;;;;8.75;1.17;;;;;;;25.56;53.86;99496.78;1748121;80;21142;-55
2021/06/23 05:46:48;;;;;;;5.47;0.80;;;;;;;25.58;53.61;99493.34;1749089;80;21099;-56
2021/06/23 05:49:15;;;;;;;3.95;0.70;;;;;;;25.61;53.99;99486.62;1750108;80;21134;-56
2021/06/23 05:51:41;;;;;;;10.93;0.68;;;;;;;25.65;54.71;99483.02;1744664;80;21523;-57
2021/06/23 05:54:07;;;;;;;3.60;0.57;;;;;;;25.68;54.56;99481.30;1742789;80;21657;-56
2021/06/23 05:56:34;;;;;;;1.22;0.65;;;;;;;25.72;53.75;99484.02;1750257;80;21098;-57
2021/06/23 05:59:00;;;;;;;8.60;0.50;;;;;;;25.75;53.89;99474.03;1745942;80;20981;-57
2021/06/23 06:01:27;;;;;;;6.17;0.50;;;;;;;25.81;53.56;99476.06;1747132;80;21108;-55
2021/06/23 06:03:53;;;;;;;6.25;0.60;;;;;;;25.88;52.91;99477.06;1744582;80;21546;-57
2021/06/23 06:06:20;;;;;;;4.95;0.53;;;;;;;25.92;52.70;99466.03;1748045;80;22300;-58
2021/06/23 06:08:46;;;;;;;5.05;0.80;;;;;;;25.98;52.69;99468.93;1747069;80;21111;-57
2021/06/23 06:11:13;;;;;;;2.90;0.60;;;;;;;26.06;51.81;99466.66;1747403;80;21076;-57
2021/06/23 06:13:41;;;;;;;4.05;0.50;;;;;;;26.15;52.00;99469.71;1747461;80;21028;-54
2021/06/23 06:16:08;;;;;;;7.87;0.60;;;;;;;26.24;51.74;99456.73;1747757;80;21507;-57
2021/06/23 06:18:35;;;;;;;6.35;0.60;;;;;;;26.33;51.96;99468.09;1744138;80;21028;-56
2021/06/23 06:21:01;;;;;;;5.22;1.15;;;;;;;26.42;51.49;99470.29;1747982;80;21108;-57
2021/06/23 06:23:29;;;;;;;4.17;0.53;;;;;;;26.50;50.72;99466.09;1747774;80;21151;-57
2021/06/23 06:25:56;;;;;;;8.18;0.60;;;;;;;26.58;50.33;99464.14;1745445;80;21091;-55
2021/06/23 06:28:22;;;;;;;10.13;0.53;;;;;;;26.66;50.26;99458.56;1744756;80;21438;-57
2021/06/23 06:30:49;;;;;;;2.05;0.50;;;;;;;26.73;50.40;99454.53;1741850;80;20964;-57
2021/06/23 06:33:15;;;;;;;3.65;0.60;;;;;;;26.82;50.29;99459.47;1741968;80;22258;-57
2021/06/23 06:35:42;;;;;;;5.37;0.85;;;;;;;26.88;50.12;99449.09;1733773;80;21518;-56
2021/06/23 06:38:08;;;;;;;4.28;0.70;;;;;;;26.95;49.96;99455.09;1730394;80;21144;-56
2021/06/23 06:40:35;;;;;;;4.45;0.50;;;;;;;27.03;48.90;99455.54;1734266;81;21136;-56
2021/06/23 06:43:01;;;;;;;4.70;0.60;;;;;;;27.10;49.01;99455.98;1732166;80;21064;-57
2021/06/23 06:45:28;;;;;;;3.90;0.75;;;;;;;27.18;49.03;99453.67;1734662;80;21086;-57
2021/06/23 06:47:54;;;;;;;3.87;0.60;;;;;;;27.24;48.38;99451.52;1741784;80;21070;-57
2021/06/23 06:50:20;;;;;;;4.15;0.60;;;;;;;27.30;49.08;99446.66;1732940;80;20999;-56
2021/06/23 06:52:47;;;;;;;1.20;0.60;;;;;;;27.38;49.72;99442.42;1733071;80;21096;-57
2021/06/23 06:55:20;;;;;;;2.55;0.60;;;;;;;27.46;49.41;99438.19;1730633;80;21975;-56
2021/06/23 06:57:41;;;;;;;5.10;0.60;;;;;;;27.55;49.27;99445.90;1731028;80;21046;-57
2021/06/23 07:00:09;;;;;;;6.55;1.12;;;;;;;27.64;49.28;99442.52;1732231;81;21100;-58
2021/06/23 07:02:36;;;;;;;7.33;0.70;;;;;;;27.73;49.01;99442.75;1730351;81;21092;-56
2021/06/23 07:05:03;;;;;;;5.47;0.60;;;;;;;27.82;48.43;99441.58;1732173;81;22489;-57
2021/06/23 07:07:29;;;;;;;4.65;0.70;;;;;;;27.92;49.05;99444.05;1733190;81;20952;-55
2021/06/23 07:12:23;;;;;;;8.43;0.60;;;;;;;28.13;47.47;99438.07;1864162;75;21766;-56
2021/06/23 07:14:49;;;;;;;12.18;0.70;;;;;;;28.16;47.47;99446.52;1840777;77;21179;-57
2021/06/23 07:17:16;;;;;;;11.95;0.93;;;;;;;28.21;46.31;99455.98;1833429;77;22301;-57
2021/06/23 07:19:42;;;;;;;5.53;0.60;;;;;;;28.29;46.30;99448.61;1837001;77;21108;-57
2021/06/23 07:22:08;;;;;;;4.10;0.80;;;;;;;28.38;46.55;99458.52;1838950;77;21072;-56
2021/06/23 07:24:35;;;;;;;5.03;0.90;;;;;;;28.44;46.66;99459.97;1834595;76;20977;-57
2021/06/23 07:27:03;;;;;;;1.30;0.53;;;;;;;28.52;46.19;99457.08;1835711;77;21218;-56
2021/06/23 07:29:29;;;;;;;1.75;0.60;;;;;;;28.60;45.64;99461.63;1807978;77;22520;-58
2021/06/23 07:32:02;;;;;;;4.03;0.60;;;;;;;28.71;45.54;99470.81;1838347;75;21439;-57
2021/06/23 07:37:07;;;;;;;3.72;0.60;;;;;;;28.91;45.16;99458.06;1835396;77;20866;-55
2021/06/23 07:39:35;;;;;;;3.98;0.68;;;;;;;29.02;45.35;99453.02;1843836;76;20929;-56
2021/06/23 07:42:04;;;;;;;3.05;0.55;;;;;;;29.10;44.71;99457.03;1835559;76;20851;-58
2021/06/23 07:44:37;;;;;;;7.42;0.65;;;;;;;29.15;44.92;99452.63;1835179;76;20863;-57
2021/06/23 07:47:06;;;;;;;2.55;0.65;;;;;;;29.20;44.75;99440.92;1832878;76;20879;-57
2021/06/23 07:49:35;;;;;;;3.08;0.70;;;;;;;29.25;44.75;99440.66;1805693;76;20933;-57
2021/06/23 07:52:11;;;;;;;4.72;0.70;;;;;;;29.27;45.36;99455.69;1831307;76;20894;-58
2021/06/23 08:10:48;;;;;;;6.78;0.90;;;;;;;29.27;44.87;99457.92;1766965;80;20993;-58
2021/06/23 08:13:14;;;;;;;4.03;0.78;;;;;;;29.27;45.23;99464.86;1763379;80;21521;-57
2021/06/23 08:15:43;;;;;;;6.17;1.37;;;;;;;29.30;45.79;99463.08;1762030;79;21476;-58
2021/06/23 08:18:10;;;;;;;5.65;0.70;;;;;;;29.34;45.93;99469.95;1761950;79;21231;-57
2021/06/23 08:20:38;;;;;;;3.42;0.70;;;;;;;29.35;44.86;99464.73;1765117;80;21216;-58
2021/06/23 08:23:04;;;;;;;4.22;0.80;;;;;;;29.36;45.29;99458.67;1767446;80;21073;-57
2021/06/23 08:25:31;;;;;;;7.97;0.90;;;;;;;29.37;44.98;99465.07;1765012;80;21459;-57
2021/06/23 08:27:57;;;;;;;4.45;0.80;;;;;;;29.38;45.52;99461.25;1764422;80;21635;-58
2021/06/23 08:30:24;;;;;;;12.95;1.10;;;;;;;29.40;45.83;99471.61;1764007;80;21088;-56
2021/06/23 08:32:50;;;;;;;9.08;1.47;;;;;;;29.42;46.07;99473.13;1766571;80;21126;-58
2021/06/23 08:35:17;;;;;;;8.28;0.88;;;;;;;29.47;45.92;99471.98;1761789;80;21045;-59
2021/06/23 08:37:43;;;;;;;10.85;1.25;;;;;;;29.52;45.33;99476.94;1769498;80;21219;-58
2021/06/23 08:40:12;;;;;;;11.03;1.47;;;;;;;29.57;45.82;99474.41;1764153;80;21015;-59
2021/06/23 08:42:38;;;;;;;8.08;1.00;;;;;;;29.64;45.96;99466.45;1793185;78;21068;-57
2021/06/23 08:45:06;;;;;;;4.30;0.85;;;;;;;29.75;45.49;99470.59;1794294;78;21504;-57
2021/06/23 08:47:36;;;;;;;4.72;1.35;;;;;;;29.83;44.67;99464.88;1789219;78;21057;-59
2021/06/23 08:50:02;;;;;;;6.20;1.00;;;;;;;29.94;45.41;99459.31;1794880;77;21041;-57
2021/06/23 08:52:29;;;;;;;2.75;0.90;;;;;;;30.07;44.84;99459.37;1770280;80;21122;-56
2021/06/23 08:54:56;;;;;;;1.90;0.72;;;;;;;30.19;44.47;99456.88;1774433;80;21096;-56
2021/06/23 08:57:22;;;;;;;3.77;1.05;;;;;;;30.26;44.98;99461.38;1777125;78;21194;-57
2021/06/23 08:59:48;;;;;;;5.62;0.78;;;;;;;30.37;44.68;99459.91;1769520;78;21022;-58
2021/06/23 09:02:16;;;;;;;3.72;0.72;;;;;;;30.45;43.60;99459.19;1768698;79;21495;-57
2021/06/23 09:05:11;;;;;;;1.35;0.70;;;;;;;30.48;43.50;99460.17;1774919;79;21096;-57
2021/06/23 09:07:49;;;;;;;3.37;0.60;;;;;;;30.50;44.25;99450.24;1791715;78;21344;-57
2021/06/23 09:10:25;;;;;;;4.15;0.60;;;;;;;30.49;42.47;99447.14;1776875;80;22032;-59
2021/06/23 09:13:07;;;;;;;4.70;0.60;;;;;;;30.46;41.77;99453.10;1783346;79;20913;-57
2021/06/23 09:15:49;;;;;;;2.65;0.50;;;;;;;30.42;41.63;99452.69;1764455;79;21064;-57
2021/06/23 09:18:27;;;;;;;5.55;0.60;;;;;;;30.46;41.51;99460.05;1767898;79;21093;-63
2021/06/23 09:20:58;;;;;;;9.23;0.80;;;;;;;30.49;41.21;99461.02;1772565;79;21124;-64
2021/06/23 09:23:54;;;;;;;8.88;0.90;;;;;;;30.54;41.12;99461.27;1761748;80;21149;-59
2021/06/23 09:26:26;;;;;;;8.33;0.88;;;;;;;30.59;41.00;99458.74;1773890;79;21601;-61
2021/06/23 09:29:14;;;;;;;7.17;1.00;;;;;;;30.64;41.62;99458.09;1785323;79;20980;-64
2021/06/23 09:32:01;;;;;;;8.20;1.30;;;;;;;30.65;41.29;99459.28;1778046;78;21022;-65
2021/06/23 09:34:34;;;;;;;6.53;0.68;;;;;;;30.69;42.03;99462.52;1780588;79;21370;-61
2021/06/23 09:37:26;;;;;;;2.77;0.60;;;;;;;30.78;43.28;99461.25;1781969;78;21124;-64
2021/06/23 09:40:20;;;;;;;3.70;0.70;;;;;;;30.87;42.43;99461.91;1783526;79;21025;-64
2021/06/23 09:43:00;;;;;;;3.08;0.68;;;;;;;30.95;42.50;99464.48;1774386;79;21395;-59
2021/06/23 09:45:24;;;;;;;3.42;0.80;;;;;;;31.04;42.52;99479.36;1770694;79;21505;-59
2021/06/23 09:48:04;;;;;;;1.98;0.65;;;;;;;31.13;42.24;99486.45;1773891;79;21574;-63
2021/06/23 09:50:32;;;;;;;9.88;0.70;;;;;;;31.23;42.18;99485.15;1777265;79;21744;-61
2021/06/23 09:53:05;;;;;;;7.37;1.12;;;;;;;31.32;41.72;99488.04;1775070;79;21449;-60
2021/06/23 09:55:38;;;;;;;6.97;0.90;;;;;;;31.38;41.61;99491.37;1781322;79;22852;-59
2021/06/23 09:58:20;;;;;;;13.23;1.10;;;;;;;31.39;42.16;99495.31;1786100;78;21100;-58
2021/06/23 10:01:09;;;;;;;8.40;1.22;;;;;;;31.43;41.97;99495.75;1778654;79;22163;-62
2021/06/23 10:04:01;;;;;;;9.75;0.70;;;;;;;31.43;41.76;99496.61;1780294;79;21104;-65
2021/06/23 10:06:31;;;;;;;3.10;0.90;;;;;;;31.42;42.05;99496.81;1782176;79;22811;-61
2021/06/23 10:09:15;;;;;;;5.40;0.72;;;;;;;31.46;42.33;99492.55;1779189;79;21073;-59
2021/06/23 10:11:42;;;;;;;;;;;;;;;31.51;42.64;99491.36;1779090;79;21649;-60
2021/06/23 10:14:09;;;;;;;5.55;0.70;;;;;;;31.57;42.78;99494.66;1772888;79;20224;-62
2021/06/23 10:16:37;;;;;;;4.55;0.60;;;;;;;31.62;42.13;99492.67;1777416;79;21102;-62
2021/06/23 10:19:06;;;;;;;3.35;0.70;;;;;;;31.65;43.02;99491.69;1778653;79;21076;-58
2021/06/23 10:21:32;;;;;;;5.78;0.72;;;;;;;31.73;43.34;99498.98;1774332;79;20938;-59
2021/06/23 10:23:59;;;;;;;3.52;0.70;;;;;;;31.77;42.51;99498.85;1782218;79;20977;-60
2021/06/23 10:26:28;;;;;;;5.90;0.75;;;;;;;31.77;43.19;99493.29;1774925;78;21041;-59
2021/06/23 10:28:55;;;;;;;2.98;0.60;;;;;;;31.79;43.04;99494.80;1773197;79;21643;-61
2021/06/23 10:31:26;;;;;;;8.10;0.88;;;;;;;31.78;43.34;99498.64;1767438;79;20954;-61
2021/06/23 10:33:52;;;;;;;6.45;0.70;;;;;;;31.77;43.50;99491.89;1767783;80;20985;-61
2021/06/23 10:36:22;;;;;;;1.77;0.60;;;;;;;31.77;44.14;99496.92;1764268;80;20978;-63
2021/06/23 10:38:48;;;;;;;9.58;0.60;;;;;;;31.81;43.96;99492.66;1762200;79;20954;-60
2021/06/23 10:41:15;;;;;;;4.97;0.53;;;;;;;31.84;44.24;99489.41;1764194;80;21393;-55
2021/06/23 10:43:43;;;;;;;4.42;0.70;;;;;;;31.91;44.41;99494.42;1766673;80;20892;-58
2021/06/23 10:46:11;;;;;;;3.08;0.60;;;;;;;31.96;43.26;99493.79;1764774;80;20926;-55
2021/06/23 10:48:57;;;;;;;4.12;0.75;;;;;;;31.93;43.52;99492.82;1767197;80;20891;-56
2021/06/23 10:51:27;;;;;;;1.25;0.55;;;;;;;31.92;43.48;99492.50;1765264;80;20919;-56
2021/06/23 10:53:54;;;;;;;2.98;0.60;;;;;;;31.95;43.74;99476.23;1769255;80;21772;-56
2021/06/23 10:56:42;;;;;;;7.05;0.68;;;;;;;31.99;43.39;99477.17;1765180;80;21412;-57
2021/06/23 10:59:35;;;;;;;4.70;0.60;;;;;;;31.99;43.39;99479.41;1762677;80;20887;-57
2021/06/23 11:02:09;;;;;;;5.47;0.53;;;;;;;32.03;42.77;99484.88;1761624;80;21128;-58
2021/06/23 11:05:03;;;;;;;5.08;0.70;;;;;;;32.09;43.72;99483.14;1766089;80;20891;-59
2021/06/23 11:07:49;;;;;;;;;;;;;;;32.15;42.33;99488.70;1706781;82;21157;-60
2021/06/23 11:10:25;;;;;;;4.03;0.60;;;;;;;32.22;41.24;99484.53;1754718;79;20240;-59
2021/06/23 11:13:02;;;;;;;10.30;0.90;;;;;;;32.25;39.99;99482.68;1761726;80;21073;-59
2021/06/23 11:15:36;;;;;;;3.80;0.60;;;;;;;32.28;40.01;99488.68;1758634;80;21058;-64
2021/06/23 11:18:41;;;;;;;4.97;0.90;;;;;;;32.35;40.08;99490.57;1760913;80;21029;-60
2021/06/23 11:21:17;;;;;;;10.98;0.85;;;;;;;32.39;39.97;99501.07;1761091;79;21155;-62
2021/06/23 11:24:01;;;;;;;8.03;1.37;;;;;;;32.43;39.30;99497.28;1764271;80;20998;-63
2021/06/23 11:26:31;;;;;;;;;;;;;;;32.44;39.15;99494.28;1767618;80;21092;-67
2021/06/23 11:29:15;;;;;;;5.50;1.32;;;;;;;32.46;39.02;99497.71;1761017;79;20239;-62
2021/06/23 11:32:01;;;;;;;12.18;1.47;;;;;;;32.43;38.80;99495.36;1760062;79;21675;-60
2021/06/23 11:34:43;;;;;;;5.12;0.90;;;;;;;32.42;39.26;99497.82;1749268;79;21114;-58
2021/06/23 11:37:16;;;;;;;12.05;0.80;;;;;;;32.40;39.92;99500.53;1788714;78;21041;-63
2021/06/23 11:39:43;;;;;;;8.35;0.88;;;;;;;32.37;40.11;99494.00;1764825;80;20957;-59
2021/06/23 11:42:11;;;;;;;7.83;1.12;;;;;;;32.37;40.11;99491.22;1760658;80;21059;-60
2021/06/23 11:44:39;;;;;;;7.50;1.10;;;;;;;32.41;40.51;99499.46;1763520;79;21120;-61
2021/06/23 11:47:07;;;;;;;9.98;0.80;;;;;;;32.43;39.54;99493.97;1764901;80;22236;-58
2021/06/23 11:49:34;;;;;;;7.35;0.78;;;;;;;32.43;39.74;99498.14;1759835;80;22152;-63
2021/06/23 11:52:02;;;;;;;9.50;0.90;;;;;;;32.44;40.38;99504.03;1765965;80;21645;-64
2021/06/23 11:54:28;;;;;;;7.58;0.90;;;;;;;32.50;40.95;99500.89;1761915;80;21049;-65
2021/06/23 11:56:54;;;;;;;15.78;1.27;;;;;;;32.56;40.93;99500.88;1764132;80;21812;-59
2021/06/23 11:59:21;;;;;;;10.75;1.12;;;;;;;32.61;40.06;99498.27;1762716;80;21156;-65
2021/06/23 12:01:49;;;;;;;10.90;0.90;;;;;;;32.65;39.21;99497.30;1761824;80;21484;-60
2021/06/23 12:04:15;;;;;;;13.20;1.10;;;;;;;32.68;39.43;99494.05;1764877;80;21483;-59
2021/06/23 12:06:42;;;;;;;14.80;1.00;;;;;;;32.72;39.12;99505.12;1760487;80;21101;-62